• Join FlightAware (Why Join?)
  • Login
  • US Flag 
07:35PM EDT


 

Airport Tracker/Info


-or-


 

Live Flight TrackerFlight Track Log ✈ AWE3434 ✈ 27-Aug-2014 ✈ KPHL - KCMH

Flight Track Log - Related Links

Times and Time Zones

All times are in EDT time to prevent confusion due to time zone crossing. See the AWE3434 flight status page for this flight to view local times or setup timezone preferences in your user account.

Time Position Orientation Groundspeed Altitude Reporting Facility
EDT Latitude Longitude Course Direction KTS MPH feet Rate Location/Type
02:03PM 39.8667 -75.2667 270° West 151 174 600  Level Philadelphia TRACON
02:04PM 39.8532 -75.3176 256° West 190 219 2,600 1,860 Climbing FlightAware ADS-B (KPHL)
02:04PM 39.8500 -75.3333 252° West 198 228 2,500 4,500 Descending Philadelphia TRACON
02:04PM 39.8459 -75.3555 259° West 214 246 5,000 2,520 Climbing FlightAware ADS-B (KPHL)
02:07PM 39.8581 -75.5908 270° West  Level Estimated
02:07PM 39.8842 -75.5386 282° West 277 319 8,700  Level Cleveland Center
02:07PM 39.8886 -75.6244 274° West 287 330 10,800 2,640 Climbing New York Center
02:08PM 39.9166 -75.6670 258° West  Level FlightAware Approximate
02:08PM 39.8936 -75.7547 273° West 322 371 13,300  Level New York Center
02:09PM 39.9000 -75.7789 270° West  Level FlightAware Approximate
02:09PM 39.9011 -75.8689 275° West 330 380 15,900  Level New York Center
02:10PM 39.9061 -75.9939 273° West 335 386 18,100 2,100 Climbing New York Center
02:11PM 39.9133 -76.1108 275° West 354 407 20,200 1,980 Climbing New York Center
02:12PM 39.9172 -76.2572 272° West 364 419 22,100 1,620 Climbing New York Center
02:13PM 39.9233 -76.3903 273° West 380 437 23,500 1,500 Climbing New York Center
02:14PM 39.9272 -76.5261 272° West 386 444 25,100 1,500 Climbing New York Center
02:15PM 39.9325 -76.6700 273° West 386 444 26,500 1,380 Climbing New York Center
02:16PM 39.9381 -76.8114 273° West 386 444 27,900 1,320 Climbing New York Center
02:17PM 39.9431 -76.9553 273° West 393 452 29,200 1,200 Climbing New York Center
02:18PM 39.9478 -77.1019 272° West 400 460 30,400 1,020 Climbing New York Center
02:19PM 39.9542 -77.2517 273° West 405 466 31,300 540 Climbing New York Center
02:21PM 39.9625 -77.5111 272° West 417 480 32,000 240 Climbing Cleveland Center
02:22PM 39.9658 -77.6589 272° West 413 475 32,000  Level Cleveland Center
02:23PM 39.9703 -77.8058 272° West 410 472 32,000  Level Cleveland Center
02:24PM 39.9753 -77.9531 273° West 410 472 32,000  Level Cleveland Center
02:25PM 39.9794 -78.1281 272° West 407 468 32,000  Level Cleveland Center
02:26PM 39.9828 -78.2756 272° West 407 468 32,000  Level Cleveland Center
02:27PM 39.9858 -78.4114 272° West 406 467 32,000  Level Cleveland Center
02:28PM 39.9903 -78.5864 272° West 406 467 32,000  Level Cleveland Center
02:29PM 39.9939 -78.7300 272° West 404 465 32,000  Level Cleveland Center
02:30PM 39.9967 -78.8764 271° West 403 464 32,000  Level Cleveland Center
02:32PM 39.9992 -79.0161 271° West 402 463 32,000  Level Cleveland Center
02:33PM 40.0017 -79.1639 271° West 402 463 32,000 -480 Level Cleveland Center
02:34PM 40.0028 -79.3089 271° West 403 464 31,100 -1,020 Descending Cleveland Center
02:35PM 40.0047 -79.4825 271° West 403 464 30,000 -540 Descending Cleveland Center
02:36PM 40.0078 -79.6267 272° West 401 461 30,000  Level Cleveland Center
02:37PM 40.0089 -79.7717 271° West 400 460 30,000 -540 Level Cleveland Center
02:38PM 40.0114 -79.9175 271° West 400 460 28,900 -1,440 Descending Cleveland Center
02:39PM 40.0031 -80.0586 266° West 396 456 27,100 -1,440 Descending Cleveland Center
02:40PM 39.9928 -80.1964 264° West 383 441 26,000 -540 Descending Cleveland Center
02:41PM 39.9769 -80.3597 263° West 380 437 26,000 -540 Level Cleveland Center
02:42PM 39.9522 -80.4936 256° West 380 437 24,900 -960 Descending Cleveland Center
02:43PM 39.9383 -80.6278 262° West 377 434 24,000 -780 Descending Cleveland Center
02:44PM 39.9236 -80.7622 262° West 375 432 23,300 -1,020 Descending Cleveland Center
02:45PM 39.9086 -80.8922 261° West 366 421 22,000 -660 Descending Cleveland Center
02:46PM 39.8928 -81.0189 261° West 359 413 22,000  Level Cleveland Center
02:47PM 39.8786 -81.1469 262° West 358 412 22,000 -780 Level Cleveland Center
02:48PM 39.8600 -81.3006 261° West 358 412 20,400 -1,440 Descending Cleveland Center
02:49PM 39.8475 -81.4144 262° West 350 403 19,000 -1,380 Descending Cleveland Center
02:50PM 39.8317 -81.5350 260° West 342 394 17,600 -1,500 Descending Cleveland Center
02:51PM 39.8142 -81.6758 261° West 333 383 15,900 -1,620 Descending Cleveland Center
02:53PM 39.7939 -81.8361 261° West 325 374 13,800 -1,440 Descending Indianapolis Center
02:54PM 39.7794 -81.9456 260° West 316 364 12,400 -1,440 Descending Indianapolis Center
02:54PM 39.7675 -82.0264 259° West 310 357 11,400 -1,260 Descending Indianapolis Center
02:55PM 39.7647 -82.0575 263° West 316 364 11,100 -1,080 Descending Indianapolis Center
02:56PM 39.7831 -82.1528 284° West 311 358 9,900 -1,380 Descending Indianapolis Center
02:56PM 39.8006 -82.1756 315° West 282 325 9,400 -1,800 Descending Indianapolis Center
02:57PM 39.8347 -82.2231 313° West 286 329 8,100 -1,920 Descending Indianapolis Center
02:57PM 39.8508 -82.2483 310° West 266 306 7,500 -1,920 Descending Indianapolis Center
02:58PM 39.9036 -82.3161 315° West 267 307 5,800 -1,500 Descending Indianapolis Center
02:59PM 39.9447 -82.3961 304° West 243 280 4,500 -960 Descending Indianapolis Center
03:00PM 39.9647 -82.4533 295° West 241 277 4,000 -300 Descending Indianapolis Center
03:01PM 39.9819 -82.5283 287° West 226 260 4,000  Level Indianapolis Center
03:02PM 39.9847 -82.6014 273° West 180 207 4,000 -60 Level Indianapolis Center
03:03PM 39.9886 -82.6633 275° West 186 214 3,900 -600 Descending Indianapolis Center
03:04PM 39.9931 -82.7364 275° West 188 216 2,900 -1,020 Descending Indianapolis Center
03:05PM 39.9967 -82.7889 275° West 164 189 2,100 -780 Descending Indianapolis Center
03:05PM 39.9972 -82.8014 273° West 171 197 2,000 -660 Descending Indianapolis Center
03:06PM 39.9978 -82.8436 271° West 129 148 1,400 -720 Descending Indianapolis Center
03:06PM 39.9997 -82.8492 295° West 146 168 1,300 -540 Descending Indianapolis Center